sensor_id;sensor_type;location;lat;lon;timestamp;P1;durP1;ratioP1;P2;durP2;ratioP2
65071;SDS011;51663;52.310;17.016;2022-08-18T00:00:49;21.58;;;16.13;;
65071;SDS011;51663;52.310;17.016;2022-08-18T00:03:52;15.55;;;13.40;;
65071;SDS011;51663;52.310;17.016;2022-08-18T00:07:05;16.85;;;14.63;;
65071;SDS011;51663;52.310;17.016;2022-08-18T00:10:09;16.67;;;14.13;;
65071;SDS011;51663;52.310;17.016;2022-08-18T00:13:19;20.30;;;14.43;;
65071;SDS011;51663;52.310;17.016;2022-08-18T00:16:21;18.42;;;14.43;;
65071;SDS011;51663;52.310;17.016;2022-08-18T00:19:23;15.40;;;13.85;;
65071;SDS011;51663;52.310;17.016;2022-08-18T00:22:46;16.23;;;14.50;;
65071;SDS011;51663;52.310;17.016;2022-08-18T00:25:50;20.13;;;14.98;;
65071;SDS011;51663;52.310;17.016;2022-08-18T00:28:52;21.25;;;14.02;;
65071;SDS011;51663;52.310;17.016;2022-08-18T00:31:54;21.38;;;14.00;;
65071;SDS011;51663;52.310;17.016;2022-08-18T00:34:56;17.83;;;14.23;;
65071;SDS011;51663;52.310;17.016;2022-08-18T00:38:05;16.17;;;14.52;;
65071;SDS011;51663;52.310;17.016;2022-08-18T00:41:23;16.13;;;14.32;;
65071;SDS011;51663;52.310;17.016;2022-08-18T00:44:27;18.65;;;15.52;;
65071;SDS011;51663;52.310;17.016;2022-08-18T00:47:30;16.80;;;15.23;;
65071;SDS011;51663;52.310;17.016;2022-08-18T00:50:56;16.80;;;15.00;;
65071;SDS011;51663;52.310;17.016;2022-08-18T00:54:05;16.90;;;14.02;;
65071;SDS011;51663;52.310;17.016;2022-08-18T00:57:13;20.10;;;14.85;;
65071;SDS011;51663;52.310;17.016;2022-08-18T01:00:19;16.48;;;14.48;;
65071;SDS011;51663;52.310;17.016;2022-08-18T01:03:22;20.80;;;17.45;;
65071;SDS011;51663;52.310;17.016;2022-08-18T01:06:27;17.00;;;14.98;;
65071;SDS011;51663;52.310;17.016;2022-08-18T01:09:34;19.15;;;17.17;;
65071;SDS011;51663;52.310;17.016;2022-08-18T01:12:37;18.80;;;15.90;;
65071;SDS011;51663;52.310;17.016;2022-08-18T01:15:46;19.35;;;17.13;;
65071;SDS011;51663;52.310;17.016;2022-08-18T01:18:49;20.15;;;16.58;;
65071;SDS011;51663;52.310;17.016;2022-08-18T01:22:12;18.50;;;16.50;;
65071;SDS011;51663;52.310;17.016;2022-08-18T01:25:24;18.25;;;16.25;;
65071;SDS011;51663;52.310;17.016;2022-08-18T01:28:45;20.38;;;16.25;;
65071;SDS011;51663;52.310;17.016;2022-08-18T01:31:51;21.92;;;19.35;;
65071;SDS011;51663;52.310;17.016;2022-08-18T01:34:56;24.25;;;20.60;;
65071;SDS011;51663;52.310;17.016;2022-08-18T01:37:59;24.08;;;21.45;;
65071;SDS011;51663;52.310;17.016;2022-08-18T01:41:02;27.70;;;20.95;;
65071;SDS011;51663;52.310;17.016;2022-08-18T01:44:25;23.92;;;20.98;;
65071;SDS011;51663;52.310;17.016;2022-08-18T01:47:27;23.38;;;20.92;;
65071;SDS011;51663;52.310;17.016;2022-08-18T01:50:47;26.48;;;21.73;;
65071;SDS011;51663;52.310;17.016;2022-08-18T01:53:50;30.02;;;21.58;;
65071;SDS011;51663;52.310;17.016;2022-08-18T01:56:53;27.95;;;22.42;;
65071;SDS011;51663;52.310;17.016;2022-08-18T01:59:55;25.42;;;22.88;;
65071;SDS011;51663;52.310;17.016;2022-08-18T02:03:01;26.63;;;23.83;;
65071;SDS011;51663;52.310;17.016;2022-08-18T02:06:09;27.52;;;23.08;;
65071;SDS011;51663;52.310;17.016;2022-08-18T02:09:15;27.27;;;24.48;;
65071;SDS011;51663;52.310;17.016;2022-08-18T02:12:24;28.35;;;25.40;;
65071;SDS011;51663;52.310;17.016;2022-08-18T02:15:26;27.65;;;24.77;;
65071;SDS011;51663;52.310;17.016;2022-08-18T02:18:30;25.60;;;23.00;;
65071;SDS011;51663;52.310;17.016;2022-08-18T02:21:50;27.65;;;23.42;;
65071;SDS011;51663;52.310;17.016;2022-08-18T02:24:53;29.88;;;25.20;;
65071;SDS011;51663;52.310;17.016;2022-08-18T02:27:57;26.50;;;23.02;;
65071;SDS011;51663;52.310;17.016;2022-08-18T02:31:04;26.88;;;23.60;;
65071;SDS011;51663;52.310;17.016;2022-08-18T02:34:17;26.55;;;23.73;;
65071;SDS011;51663;52.310;17.016;2022-08-18T02:37:19;31.05;;;25.05;;
65071;SDS011;51663;52.310;17.016;2022-08-18T02:40:22;26.42;;;23.73;;
65071;SDS011;51663;52.310;17.016;2022-08-18T02:43:24;28.45;;;25.45;;
65071;SDS011;51663;52.310;17.016;2022-08-18T02:46:27;29.00;;;25.85;;
65071;SDS011;51663;52.310;17.016;2022-08-18T02:49:31;30.17;;;25.20;;
65071;SDS011;51663;52.310;17.016;2022-08-18T02:52:33;29.02;;;25.98;;
65071;SDS011;51663;52.310;17.016;2022-08-18T02:55:35;37.03;;;26.60;;
65071;SDS011;51663;52.310;17.016;2022-08-18T02:58:38;29.38;;;25.88;;
65071;SDS011;51663;52.310;17.016;2022-08-18T03:01:41;29.25;;;25.92;;
65071;SDS011;51663;52.310;17.016;2022-08-18T03:04:45;32.40;;;26.92;;
65071;SDS011;51663;52.310;17.016;2022-08-18T03:07:47;34.03;;;26.63;;
65071;SDS011;51663;52.310;17.016;2022-08-18T03:10:51;31.73;;;28.35;;
65071;SDS011;51663;52.310;17.016;2022-08-18T03:13:55;28.70;;;25.88;;
65071;SDS011;51663;52.310;17.016;2022-08-18T03:16:58;28.48;;;25.63;;
65071;SDS011;51663;52.310;17.016;2022-08-18T03:20:00;29.95;;;26.98;;
65071;SDS011;51663;52.310;17.016;2022-08-18T03:23:03;28.83;;;25.73;;
65071;SDS011;51663;52.310;17.016;2022-08-18T03:26:11;28.83;;;25.30;;
65071;SDS011;51663;52.310;17.016;2022-08-18T03:29:15;31.20;;;25.65;;
65071;SDS011;51663;52.310;17.016;2022-08-18T03:32:17;30.80;;;27.23;;
65071;SDS011;51663;52.310;17.016;2022-08-18T03:35:19;26.13;;;23.35;;
65071;SDS011;51663;52.310;17.016;2022-08-18T03:38:21;26.58;;;23.75;;
65071;SDS011;51663;52.310;17.016;2022-08-18T03:41:24;27.77;;;24.48;;
65071;SDS011;51663;52.310;17.016;2022-08-18T03:44:47;28.90;;;25.90;;
65071;SDS011;51663;52.310;17.016;2022-08-18T03:47:49;31.80;;;26.27;;
65071;SDS011;51663;52.310;17.016;2022-08-18T03:50:53;31.13;;;27.45;;
65071;SDS011;51663;52.310;17.016;2022-08-18T03:53:56;31.52;;;23.73;;
65071;SDS011;51663;52.310;17.016;2022-08-18T03:57:01;34.53;;;26.63;;
65071;SDS011;51663;52.310;17.016;2022-08-18T04:00:03;29.02;;;25.63;;
65071;SDS011;51663;52.310;17.016;2022-08-18T04:03:05;28.70;;;24.67;;
65071;SDS011;51663;52.310;17.016;2022-08-18T04:06:18;30.10;;;26.05;;
65071;SDS011;51663;52.310;17.016;2022-08-18T04:09:31;30.10;;;24.95;;
65071;SDS011;51663;52.310;17.016;2022-08-18T04:12:34;28.98;;;25.23;;
65071;SDS011;51663;52.310;17.016;2022-08-18T04:15:38;31.80;;;25.02;;
65071;SDS011;51663;52.310;17.016;2022-08-18T04:18:40;28.95;;;24.30;;
65071;SDS011;51663;52.310;17.016;2022-08-18T04:21:42;46.55;;;26.63;;
65071;SDS011;51663;52.310;17.016;2022-08-18T04:24:45;55.10;;;26.95;;
65071;SDS011;51663;52.310;17.016;2022-08-18T04:27:50;46.50;;;27.33;;
65071;SDS011;51663;52.310;17.016;2022-08-18T04:30:52;153.05;;;33.63;;
65071;SDS011;51663;52.310;17.016;2022-08-18T04:33:56;50.97;;;28.85;;
65071;SDS011;51663;52.310;17.016;2022-08-18T04:36:59;38.80;;;27.48;;
65071;SDS011;51663;52.310;17.016;2022-08-18T04:40:03;38.30;;;26.90;;
65071;SDS011;51663;52.310;17.016;2022-08-18T04:43:07;42.00;;;26.45;;
65071;SDS011;51663;52.310;17.016;2022-08-18T04:46:15;56.15;;;26.85;;
65071;SDS011;51663;52.310;17.016;2022-08-18T04:49:19;47.13;;;26.20;;
65071;SDS011;51663;52.310;17.016;2022-08-18T04:52:25;37.25;;;26.27;;
65071;SDS011;51663;52.310;17.016;2022-08-18T04:55:57;34.00;;;28.20;;
65071;SDS011;51663;52.310;17.016;2022-08-18T04:59:02;34.08;;;28.33;;
65071;SDS011;51663;52.310;17.016;2022-08-18T05:02:07;39.67;;;30.67;;
65071;SDS011;51663;52.310;17.016;2022-08-18T05:05:15;36.40;;;30.20;;
65071;SDS011;51663;52.310;17.016;2022-08-18T05:08:17;35.65;;;28.42;;
65071;SDS011;51663;52.310;17.016;2022-08-18T05:11:19;36.92;;;31.02;;
65071;SDS011;51663;52.310;17.016;2022-08-18T05:14:22;40.00;;;28.75;;
65071;SDS011;51663;52.310;17.016;2022-08-18T05:17:25;33.63;;;28.88;;
65071;SDS011;51663;52.310;17.016;2022-08-18T05:20:31;33.97;;;27.65;;
65071;SDS011;51663;52.310;17.016;2022-08-18T05:23:33;33.90;;;28.85;;
65071;SDS011;51663;52.310;17.016;2022-08-18T05:26:36;36.85;;;30.48;;
65071;SDS011;51663;52.310;17.016;2022-08-18T05:29:38;31.88;;;28.55;;
65071;SDS011;51663;52.310;17.016;2022-08-18T05:32:46;31.95;;;28.48;;
65071;SDS011;51663;52.310;17.016;2022-08-18T05:35:53;33.50;;;28.58;;
65071;SDS011;51663;52.310;17.016;2022-08-18T05:42:18;30.67;;;27.42;;
65071;SDS011;51663;52.310;17.016;2022-08-18T05:45:22;35.30;;;28.02;;
65071;SDS011;51663;52.310;17.016;2022-08-18T05:48:24;28.95;;;25.85;;
65071;SDS011;51663;52.310;17.016;2022-08-18T05:51:30;32.35;;;25.92;;
65071;SDS011;51663;52.310;17.016;2022-08-18T05:54:45;27.63;;;24.45;;
65071;SDS011;51663;52.310;17.016;2022-08-18T05:58:22;28.55;;;25.40;;
65071;SDS011;51663;52.310;17.016;2022-08-18T06:01:37;31.33;;;24.20;;
65071;SDS011;51663;52.310;17.016;2022-08-18T06:05:07;25.30;;;22.90;;
65071;SDS011;51663;52.310;17.016;2022-08-18T06:08:13;25.77;;;23.17;;
65071;SDS011;51663;52.310;17.016;2022-08-18T06:11:17;26.65;;;23.60;;
65071;SDS011;51663;52.310;17.016;2022-08-18T06:14:23;25.75;;;23.17;;
65071;SDS011;51663;52.310;17.016;2022-08-18T06:17:30;30.50;;;24.45;;
65071;SDS011;51663;52.310;17.016;2022-08-18T06:27:40;30.88;;;22.70;;
65071;SDS011;51663;52.310;17.016;2022-08-18T06:31:09;25.13;;;22.60;;
65071;SDS011;51663;52.310;17.016;2022-08-18T06:34:24;27.23;;;21.63;;
65071;SDS011;51663;52.310;17.016;2022-08-18T06:41:13;23.77;;;21.20;;
65071;SDS011;51663;52.310;17.016;2022-08-18T06:44:45;24.35;;;21.20;;
65071;SDS011;51663;52.310;17.016;2022-08-18T06:51:00;23.63;;;21.17;;
65071;SDS011;51663;52.310;17.016;2022-08-18T06:54:24;26.80;;;21.70;;
65071;SDS011;51663;52.310;17.016;2022-08-18T07:00:34;22.33;;;20.17;;
65071;SDS011;51663;52.310;17.016;2022-08-18T07:03:45;29.10;;;22.30;;
65071;SDS011;51663;52.310;17.016;2022-08-18T07:06:55;24.73;;;21.65;;
65071;SDS011;51663;52.310;17.016;2022-08-18T07:09:57;30.45;;;21.95;;
65071;SDS011;51663;52.310;17.016;2022-08-18T07:16:33;32.63;;;22.52;;
65071;SDS011;51663;52.310;17.016;2022-08-18T07:20:06;27.00;;;23.15;;
65071;SDS011;51663;52.310;17.016;2022-08-18T07:23:26;27.83;;;22.55;;
65071;SDS011;51663;52.310;17.016;2022-08-18T07:30:06;27.15;;;21.30;;
65071;SDS011;51663;52.310;17.016;2022-08-18T07:33:17;24.60;;;21.35;;
65071;SDS011;51663;52.310;17.016;2022-08-18T07:36:23;24.88;;;22.52;;
65071;SDS011;51663;52.310;17.016;2022-08-18T07:39:35;25.50;;;22.77;;
65071;SDS011;51663;52.310;17.016;2022-08-18T07:46:11;26.80;;;23.10;;
65071;SDS011;51663;52.310;17.016;2022-08-18T07:49:21;23.75;;;21.20;;
65071;SDS011;51663;52.310;17.016;2022-08-18T07:52:29;22.30;;;20.20;;
65071;SDS011;51663;52.310;17.016;2022-08-18T07:55:49;27.85;;;20.95;;
65071;SDS011;51663;52.310;17.016;2022-08-18T07:59:02;20.55;;;18.30;;
65071;SDS011;51663;52.310;17.016;2022-08-18T08:02:18;21.77;;;18.23;;
65071;SDS011;51663;52.310;17.016;2022-08-18T08:05:41;24.67;;;18.58;;
65071;SDS011;51663;52.310;17.016;2022-08-18T08:09:00;19.70;;;17.65;;
65071;SDS011;51663;52.310;17.016;2022-08-18T08:16:19;19.73;;;17.83;;
65071;SDS011;51663;52.310;17.016;2022-08-18T08:30:24;20.73;;;16.38;;
65071;SDS011;51663;52.310;17.016;2022-08-18T08:33:27;27.85;;;18.15;;
65071;SDS011;51663;52.310;17.016;2022-08-18T08:36:40;20.73;;;17.42;;
65071;SDS011;51663;52.310;17.016;2022-08-18T08:39:52;21.60;;;17.48;;
65071;SDS011;51663;52.310;17.016;2022-08-18T08:43:03;23.98;;;18.10;;
65071;SDS011;51663;52.310;17.016;2022-08-18T08:46:12;20.95;;;18.75;;
65071;SDS011;51663;52.310;17.016;2022-08-18T08:52:37;21.20;;;17.05;;
65071;SDS011;51663;52.310;17.016;2022-08-18T08:55:45;18.35;;;16.48;;
65071;SDS011;51663;52.310;17.016;2022-08-18T08:58:51;17.25;;;15.38;;
65071;SDS011;51663;52.310;17.016;2022-08-18T09:22:48;13.43;;;12.02;;
65071;SDS011;51663;52.310;17.016;2022-08-18T09:25:59;14.70;;;11.52;;
65071;SDS011;51663;52.310;17.016;2022-08-18T09:32:57;12.65;;;11.45;;
65071;SDS011;51663;52.310;17.016;2022-08-18T09:44:04;13.15;;;11.68;;
65071;SDS011;51663;52.310;17.016;2022-08-18T09:51:14;12.40;;;11.20;;
65071;SDS011;51663;52.310;17.016;2022-08-18T09:54:28;12.13;;;11.00;;
65071;SDS011;51663;52.310;17.016;2022-08-18T09:57:37;13.00;;;11.40;;
65071;SDS011;51663;52.310;17.016;2022-08-18T10:00:44;12.80;;;11.50;;
65071;SDS011;51663;52.310;17.016;2022-08-18T10:27:33;14.15;;;10.60;;
65071;SDS011;51663;52.310;17.016;2022-08-18T10:31:02;9.68;;;8.82;;
65071;SDS011;51663;52.310;17.016;2022-08-18T10:34:41;12.07;;;10.85;;
65071;SDS011;51663;52.310;17.016;2022-08-18T10:37:53;12.95;;;11.07;;
65071;SDS011;51663;52.310;17.016;2022-08-18T10:40:59;17.92;;;11.27;;
65071;SDS011;51663;52.310;17.016;2022-08-18T10:44:16;12.98;;;9.95;;
65071;SDS011;51663;52.310;17.016;2022-08-18T10:47:30;17.45;;;10.98;;
65071;SDS011;51663;52.310;17.016;2022-08-18T10:50:37;22.90;;;11.45;;
65071;SDS011;51663;52.310;17.016;2022-08-18T10:53:54;11.60;;;10.40;;
65071;SDS011;51663;52.310;17.016;2022-08-18T11:00:26;16.42;;;11.10;;
65071;SDS011;51663;52.310;17.016;2022-08-18T11:07:31;12.32;;;10.05;;
65071;SDS011;51663;52.310;17.016;2022-08-18T11:10:41;11.70;;;10.60;;
65071;SDS011;51663;52.310;17.016;2022-08-18T11:20:33;9.82;;;8.88;;
65071;SDS011;51663;52.310;17.016;2022-08-18T11:23:36;16.38;;;10.80;;
65071;SDS011;51663;52.310;17.016;2022-08-18T11:29:53;10.65;;;9.85;;
65071;SDS011;51663;52.310;17.016;2022-08-18T11:32:59;11.73;;;10.75;;
65071;SDS011;51663;52.310;17.016;2022-08-18T11:36:03;11.95;;;10.95;;
65071;SDS011;51663;52.310;17.016;2022-08-18T11:39:10;12.07;;;10.95;;
65071;SDS011;51663;52.310;17.016;2022-08-18T11:42:16;10.48;;;9.57;;
65071;SDS011;51663;52.310;17.016;2022-08-18T11:45:28;11.23;;;10.30;;
65071;SDS011;51663;52.310;17.016;2022-08-18T11:51:57;13.85;;;11.35;;
65071;SDS011;51663;52.310;17.016;2022-08-18T11:55:06;12.55;;;11.32;;
65071;SDS011;51663;52.310;17.016;2022-08-18T12:01:54;12.07;;;10.90;;
65071;SDS011;51663;52.310;17.016;2022-08-18T12:04:59;11.05;;;10.10;;
65071;SDS011;51663;52.310;17.016;2022-08-18T12:08:22;11.90;;;10.82;;
65071;SDS011;51663;52.310;17.016;2022-08-18T12:15:30;11.85;;;10.45;;
65071;SDS011;51663;52.310;17.016;2022-08-18T12:18:47;17.98;;;11.13;;
65071;SDS011;51663;52.310;17.016;2022-08-18T12:21:55;11.30;;;10.13;;
65071;SDS011;51663;52.310;17.016;2022-08-18T12:24:58;59.35;;;14.35;;
65071;SDS011;51663;52.310;17.016;2022-08-18T12:28:02;11.50;;;10.38;;
65071;SDS011;51663;52.310;17.016;2022-08-18T12:31:12;15.35;;;9.98;;
65071;SDS011;51663;52.310;17.016;2022-08-18T12:34:19;10.90;;;9.70;;
65071;SDS011;51663;52.310;17.016;2022-08-18T12:37:28;15.07;;;10.35;;
65071;SDS011;51663;52.310;17.016;2022-08-18T12:40:50;11.13;;;10.23;;
65071;SDS011;51663;52.310;17.016;2022-08-18T12:43:55;11.30;;;10.20;;
65071;SDS011;51663;52.310;17.016;2022-08-18T12:47:00;11.52;;;10.38;;
65071;SDS011;51663;52.310;17.016;2022-08-18T12:50:04;10.65;;;9.65;;
65071;SDS011;51663;52.310;17.016;2022-08-18T12:53:08;12.27;;;10.45;;
65071;SDS011;51663;52.310;17.016;2022-08-18T12:56:28;10.75;;;9.68;;
65071;SDS011;51663;52.310;17.016;2022-08-18T12:59:32;14.57;;;9.38;;
65071;SDS011;51663;52.310;17.016;2022-08-18T13:02:38;11.40;;;9.85;;
65071;SDS011;51663;52.310;17.016;2022-08-18T13:06:00;10.70;;;9.90;;
65071;SDS011;51663;52.310;17.016;2022-08-18T13:09:03;12.02;;;9.93;;
65071;SDS011;51663;52.310;17.016;2022-08-18T13:12:26;10.00;;;9.15;;
65071;SDS011;51663;52.310;17.016;2022-08-18T13:15:29;9.95;;;9.00;;
65071;SDS011;51663;52.310;17.016;2022-08-18T13:18:31;10.68;;;9.23;;
65071;SDS011;51663;52.310;17.016;2022-08-18T13:21:34;10.48;;;9.63;;
65071;SDS011;51663;52.310;17.016;2022-08-18T13:24:42;10.75;;;9.70;;
65071;SDS011;51663;52.310;17.016;2022-08-18T13:27:44;15.55;;;10.07;;
65071;SDS011;51663;52.310;17.016;2022-08-18T13:30:47;11.35;;;10.25;;
65071;SDS011;51663;52.310;17.016;2022-08-18T13:33:51;18.48;;;10.98;;
65071;SDS011;51663;52.310;17.016;2022-08-18T13:37:00;13.30;;;12.02;;
65071;SDS011;51663;52.310;17.016;2022-08-18T13:40:02;12.65;;;11.25;;
65071;SDS011;51663;52.310;17.016;2022-08-18T13:43:07;13.38;;;12.15;;
65071;SDS011;51663;52.310;17.016;2022-08-18T13:46:16;12.05;;;10.90;;
65071;SDS011;51663;52.310;17.016;2022-08-18T13:49:30;13.73;;;11.65;;
65071;SDS011;51663;52.310;17.016;2022-08-18T13:52:32;12.38;;;11.27;;
65071;SDS011;51663;52.310;17.016;2022-08-18T13:55:40;11.73;;;10.73;;
65071;SDS011;51663;52.310;17.016;2022-08-18T13:58:42;13.15;;;11.80;;
65071;SDS011;51663;52.310;17.016;2022-08-18T14:01:54;12.70;;;11.23;;
65071;SDS011;51663;52.310;17.016;2022-08-18T14:04:56;23.42;;;12.40;;
65071;SDS011;51663;52.310;17.016;2022-08-18T14:07:59;13.23;;;10.77;;
65071;SDS011;51663;52.310;17.016;2022-08-18T14:11:02;11.75;;;10.75;;
65071;SDS011;51663;52.310;17.016;2022-08-18T14:14:07;14.60;;;10.88;;
65071;SDS011;51663;52.310;17.016;2022-08-18T14:17:09;10.93;;;10.00;;
65071;SDS011;51663;52.310;17.016;2022-08-18T14:20:11;12.30;;;11.07;;
65071;SDS011;51663;52.310;17.016;2022-08-18T14:23:34;11.00;;;10.07;;
65071;SDS011;51663;52.310;17.016;2022-08-18T14:26:57;12.70;;;10.32;;
65071;SDS011;51663;52.310;17.016;2022-08-18T14:29:59;12.48;;;10.68;;
65071;SDS011;51663;52.310;17.016;2022-08-18T14:33:07;10.52;;;9.60;;
65071;SDS011;51663;52.310;17.016;2022-08-18T14:36:12;16.33;;;10.73;;
65071;SDS011;51663;52.310;17.016;2022-08-18T14:39:15;13.43;;;10.43;;
65071;SDS011;51663;52.310;17.016;2022-08-18T14:42:18;12.68;;;10.57;;
65071;SDS011;51663;52.310;17.016;2022-08-18T14:45:41;11.13;;;10.07;;
65071;SDS011;51663;52.310;17.016;2022-08-18T14:48:49;11.45;;;10.20;;
65071;SDS011;51663;52.310;17.016;2022-08-18T14:51:51;11.45;;;10.43;;
65071;SDS011;51663;52.310;17.016;2022-08-18T14:54:53;11.00;;;10.00;;
65071;SDS011;51663;52.310;17.016;2022-08-18T14:57:55;14.50;;;9.82;;
65071;SDS011;51663;52.310;17.016;2022-08-18T15:01:01;15.50;;;10.85;;
65071;SDS011;51663;52.310;17.016;2022-08-18T15:04:10;14.23;;;9.90;;
65071;SDS011;51663;52.310;17.016;2022-08-18T15:07:19;11.75;;;9.40;;
65071;SDS011;51663;52.310;17.016;2022-08-18T15:10:24;10.52;;;9.63;;
65071;SDS011;51663;52.310;17.016;2022-08-18T15:13:28;10.63;;;9.38;;
65071;SDS011;51663;52.310;17.016;2022-08-18T15:16:31;13.38;;;9.57;;
65071;SDS011;51663;52.310;17.016;2022-08-18T15:19:39;16.67;;;9.75;;
65071;SDS011;51663;52.310;17.016;2022-08-18T15:23:02;10.65;;;9.60;;
65071;SDS011;51663;52.310;17.016;2022-08-18T15:26:28;9.80;;;8.95;;
65071;SDS011;51663;52.310;17.016;2022-08-18T15:29:31;10.20;;;9.15;;
65071;SDS011;51663;52.310;17.016;2022-08-18T15:32:34;14.35;;;9.57;;
65071;SDS011;51663;52.310;17.016;2022-08-18T15:35:36;11.07;;;9.95;;
65071;SDS011;51663;52.310;17.016;2022-08-18T15:38:49;10.07;;;9.27;;
65071;SDS011;51663;52.310;17.016;2022-08-18T15:41:52;12.10;;;10.32;;
65071;SDS011;51663;52.310;17.016;2022-08-18T15:44:54;11.27;;;8.52;;
65071;SDS011;51663;52.310;17.016;2022-08-18T15:47:57;11.13;;;9.00;;
65071;SDS011;51663;52.310;17.016;2022-08-18T15:50:59;10.48;;;9.00;;
65071;SDS011;51663;52.310;17.016;2022-08-18T15:54:12;10.77;;;8.98;;
65071;SDS011;51663;52.310;17.016;2022-08-18T15:57:15;32.08;;;10.38;;
65071;SDS011;51663;52.310;17.016;2022-08-18T16:00:39;11.73;;;8.80;;
65071;SDS011;51663;52.310;17.016;2022-08-18T16:03:46;11.65;;;9.13;;
65071;SDS011;51663;52.310;17.016;2022-08-18T16:06:52;12.70;;;8.48;;
65071;SDS011;51663;52.310;17.016;2022-08-18T16:09:56;9.60;;;8.60;;
65071;SDS011;51663;52.310;17.016;2022-08-18T16:12:59;11.38;;;8.75;;
65071;SDS011;51663;52.310;17.016;2022-08-18T16:19:37;18.20;;;9.07;;
65071;SDS011;51663;52.310;17.016;2022-08-18T16:22:39;10.20;;;8.98;;
65071;SDS011;51663;52.310;17.016;2022-08-18T16:25:41;39.45;;;16.17;;
65071;SDS011;51663;52.310;17.016;2022-08-18T16:28:45;11.27;;;10.13;;
65071;SDS011;51663;52.310;17.016;2022-08-18T16:31:51;9.90;;;9.00;;
65071;SDS011;51663;52.310;17.016;2022-08-18T16:34:53;9.95;;;8.88;;
65071;SDS011;51663;52.310;17.016;2022-08-18T16:37:55;12.93;;;8.82;;
65071;SDS011;51663;52.310;17.016;2022-08-18T16:41:08;10.23;;;8.65;;
65071;SDS011;51663;52.310;17.016;2022-08-18T16:44:15;9.57;;;8.65;;
65071;SDS011;51663;52.310;17.016;2022-08-18T16:47:17;10.02;;;9.02;;
65071;SDS011;51663;52.310;17.016;2022-08-18T16:50:19;21.80;;;9.55;;
65071;SDS011;51663;52.310;17.016;2022-08-18T16:53:23;9.13;;;8.43;;
65071;SDS011;51663;52.310;17.016;2022-08-18T16:56:40;10.98;;;8.85;;
65071;SDS011;51663;52.310;17.016;2022-08-18T16:59:42;10.38;;;9.32;;
65071;SDS011;51663;52.310;17.016;2022-08-18T17:03:05;15.25;;;9.40;;
65071;SDS011;51663;52.310;17.016;2022-08-18T17:06:27;8.80;;;7.95;;
65071;SDS011;51663;52.310;17.016;2022-08-18T17:09:30;9.88;;;8.57;;
65071;SDS011;51663;52.310;17.016;2022-08-18T17:12:33;11.63;;;9.25;;
65071;SDS011;51663;52.310;17.016;2022-08-18T17:15:35;21.50;;;10.55;;
65071;SDS011;51663;52.310;17.016;2022-08-18T17:18:38;15.77;;;9.77;;
65071;SDS011;51663;52.310;17.016;2022-08-18T17:21:40;12.57;;;9.48;;
65071;SDS011;51663;52.310;17.016;2022-08-18T17:24:42;10.07;;;9.05;;
65071;SDS011;51663;52.310;17.016;2022-08-18T17:27:51;9.45;;;8.55;;
65071;SDS011;51663;52.310;17.016;2022-08-18T17:30:53;10.05;;;8.90;;
65071;SDS011;51663;52.310;17.016;2022-08-18T17:33:56;15.38;;;9.23;;
65071;SDS011;51663;52.310;17.016;2022-08-18T17:37:06;9.52;;;8.70;;
65071;SDS011;51663;52.310;17.016;2022-08-18T17:40:12;9.45;;;8.60;;
65071;SDS011;51663;52.310;17.016;2022-08-18T17:43:19;14.73;;;9.13;;
65071;SDS011;51663;52.310;17.016;2022-08-18T17:46:27;12.35;;;9.50;;
65071;SDS011;51663;52.310;17.016;2022-08-18T17:49:36;11.35;;;9.85;;
65071;SDS011;51663;52.310;17.016;2022-08-18T17:53:20;15.70;;;10.00;;
65071;SDS011;51663;52.310;17.016;2022-08-18T17:56:24;15.07;;;9.63;;
65071;SDS011;51663;52.310;17.016;2022-08-18T18:03:03;13.73;;;9.18;;
65071;SDS011;51663;52.310;17.016;2022-08-18T18:06:10;12.75;;;9.35;;
65071;SDS011;51663;52.310;17.016;2022-08-18T18:09:38;12.23;;;9.98;;
65071;SDS011;51663;52.310;17.016;2022-08-18T18:12:40;13.75;;;9.50;;
65071;SDS011;51663;52.310;17.016;2022-08-18T18:15:44;13.10;;;9.52;;
65071;SDS011;51663;52.310;17.016;2022-08-18T18:18:54;11.32;;;9.95;;
65071;SDS011;51663;52.310;17.016;2022-08-18T18:25:08;13.88;;;9.95;;
65071;SDS011;51663;52.310;17.016;2022-08-18T18:28:26;11.30;;;9.75;;
65071;SDS011;51663;52.310;17.016;2022-08-18T18:31:35;14.00;;;10.15;;
65071;SDS011;51663;52.310;17.016;2022-08-18T18:34:43;12.50;;;10.68;;
65071;SDS011;51663;52.310;17.016;2022-08-18T18:38:02;24.15;;;10.70;;
65071;SDS011;51663;52.310;17.016;2022-08-18T18:44:10;13.90;;;10.98;;
65071;SDS011;51663;52.310;17.016;2022-08-18T18:47:28;12.00;;;10.85;;
65071;SDS011;51663;52.310;17.016;2022-08-18T19:01:00;12.82;;;10.50;;
65071;SDS011;51663;52.310;17.016;2022-08-18T19:04:06;15.15;;;11.65;;
65071;SDS011;51663;52.310;17.016;2022-08-18T19:10:48;16.27;;;11.65;;
65071;SDS011;51663;52.310;17.016;2022-08-18T19:14:19;15.00;;;10.88;;
65071;SDS011;51663;52.310;17.016;2022-08-18T19:20:37;14.23;;;11.88;;
65071;SDS011;51663;52.310;17.016;2022-08-18T19:24:16;19.63;;;11.02;;
65071;SDS011;51663;52.310;17.016;2022-08-18T19:27:29;12.93;;;11.68;;
65071;SDS011;51663;52.310;17.016;2022-08-18T19:30:40;13.65;;;11.18;;
65071;SDS011;51663;52.310;17.016;2022-08-18T19:33:49;14.60;;;11.50;;
65071;SDS011;51663;52.310;17.016;2022-08-18T19:37:15;13.35;;;12.00;;
65071;SDS011;51663;52.310;17.016;2022-08-18T19:40:43;17.95;;;12.40;;
65071;SDS011;51663;52.310;17.016;2022-08-18T19:43:49;13.05;;;11.27;;
65071;SDS011;51663;52.310;17.016;2022-08-18T19:46:56;17.63;;;13.90;;
65071;SDS011;51663;52.310;17.016;2022-08-18T20:06:43;12.82;;;11.50;;
65071;SDS011;51663;52.310;17.016;2022-08-18T20:16:36;13.15;;;11.90;;
65071;SDS011;51663;52.310;17.016;2022-08-18T20:19:46;14.70;;;13.13;;
65071;SDS011;51663;52.310;17.016;2022-08-18T20:22:55;16.85;;;12.75;;
65071;SDS011;51663;52.310;17.016;2022-08-18T20:25:59;17.40;;;14.32;;
65071;SDS011;51663;52.310;17.016;2022-08-18T20:29:02;19.40;;;13.52;;
65071;SDS011;51663;52.310;17.016;2022-08-18T20:32:49;15.25;;;11.88;;
65071;SDS011;51663;52.310;17.016;2022-08-18T20:45:37;12.70;;;11.50;;
65071;SDS011;51663;52.310;17.016;2022-08-18T20:49:00;14.48;;;13.00;;
65071;SDS011;51663;52.310;17.016;2022-08-18T20:58:43;15.70;;;12.70;;
65071;SDS011;51663;52.310;17.016;2022-08-18T21:02:02;17.73;;;12.60;;
65071;SDS011;51663;52.310;17.016;2022-08-18T21:05:05;18.35;;;13.00;;
65071;SDS011;51663;52.310;17.016;2022-08-18T21:08:27;14.65;;;12.63;;
65071;SDS011;51663;52.310;17.016;2022-08-18T21:11:42;14.32;;;12.90;;
65071;SDS011;51663;52.310;17.016;2022-08-18T21:14:51;14.32;;;12.98;;
65071;SDS011;51663;52.310;17.016;2022-08-18T21:17:56;13.90;;;12.57;;
65071;SDS011;51663;52.310;17.016;2022-08-18T21:20:59;14.50;;;13.07;;
65071;SDS011;51663;52.310;17.016;2022-08-18T21:24:16;13.95;;;12.48;;
65071;SDS011;51663;52.310;17.016;2022-08-18T21:27:33;14.68;;;11.45;;
65071;SDS011;51663;52.310;17.016;2022-08-18T21:30:37;14.23;;;12.93;;
65071;SDS011;51663;52.310;17.016;2022-08-18T21:33:40;14.88;;;13.05;;
65071;SDS011;51663;52.310;17.016;2022-08-18T21:36:51;15.20;;;12.82;;